createdAt,value
2018-02-23T00:01:11.667Z,8.37
2018-02-23T00:03:39.871Z,8.30
2018-02-23T00:06:07.378Z,8.80
2018-02-23T00:08:34.850Z,8.73
2018-02-23T00:11:02.358Z,10.23
2018-02-23T00:13:30.609Z,9.20
2018-02-23T00:15:58.098Z,9.33
2018-02-23T00:18:25.574Z,8.83
2018-02-23T00:20:53.843Z,8.87
2018-02-23T00:23:21.323Z,8.40
2018-02-23T00:25:48.835Z,8.90
2018-02-23T00:28:16.320Z,8.30
2018-02-23T00:30:43.820Z,8.70
2018-02-23T00:33:11.309Z,9.90
2018-02-23T00:35:38.809Z,8.50
2018-02-23T00:38:06.291Z,9.17
2018-02-23T00:40:33.787Z,7.77
2018-02-23T00:43:01.263Z,8.50
2018-02-23T00:45:28.768Z,8.97
2018-02-23T00:47:57.015Z,8.97
2018-02-23T00:50:24.508Z,8.70
2018-02-23T00:52:51.995Z,9.50
2018-02-23T00:55:20.265Z,7.77
2018-02-23T00:57:47.741Z,8.60
2018-02-23T01:00:15.294Z,9.40
2018-02-23T01:02:42.727Z,8.57
2018-02-23T01:05:10.987Z,7.70
2018-02-23T01:07:39.249Z,8.43
2018-02-23T01:10:06.755Z,8.53
2018-02-23T01:12:34.249Z,8.67
2018-02-23T01:15:02.520Z,8.00
2018-02-23T01:17:30.015Z,8.03
2018-02-23T01:19:57.515Z,7.90
2018-02-23T01:22:24.987Z,8.70
2018-02-23T01:24:53.462Z,9.10
2018-02-23T01:27:20.934Z,8.67
2018-02-23T01:29:48.438Z,8.43
2018-02-23T01:32:16.685Z,9.00
2018-02-23T01:34:44.172Z,9.30
2018-02-23T01:37:11.680Z,7.80
2018-02-23T01:39:39.923Z,8.20
2018-02-23T01:42:07.419Z,8.67
2018-02-23T01:44:34.888Z,9.03
2018-02-23T01:47:13.036Z,7.63
2018-02-23T01:49:40.522Z,8.90
2018-02-23T01:52:08.023Z,9.10
2018-02-23T01:54:35.505Z,8.83
2018-02-23T01:57:02.999Z,8.50
2018-02-23T01:59:31.244Z,8.33
2018-02-23T02:01:58.739Z,7.67
2018-02-23T02:04:26.220Z,8.47
2018-02-23T02:06:53.728Z,7.77
2018-02-23T02:09:21.207Z,8.60
2018-02-23T02:11:48.744Z,8.83
2018-02-23T02:14:16.987Z,7.83
2018-02-23T02:16:44.483Z,8.23
2018-02-23T02:19:11.962Z,7.63
2018-02-23T02:21:40.219Z,8.20
2018-02-23T02:24:07.704Z,7.57
2018-02-23T02:26:35.221Z,7.90
2018-02-23T02:29:02.708Z,8.10
2018-02-23T02:31:30.203Z,8.27
2018-02-23T02:33:57.692Z,8.20
2018-02-23T02:36:25.210Z,8.97
2018-02-23T02:38:52.697Z,8.00
2018-02-23T02:41:20.204Z,7.63
2018-02-23T02:43:48.465Z,7.93
2018-02-23T02:46:15.976Z,8.73
2018-02-23T02:48:44.228Z,7.17
2018-02-23T02:51:11.737Z,7.97
2018-02-23T02:53:39.993Z,6.97
2018-02-23T02:56:07.505Z,7.07
2018-02-23T02:58:35.002Z,7.40
2018-02-23T03:01:02.513Z,7.60
2018-02-23T03:03:30.005Z,7.80
2018-02-23T03:06:07.962Z,7.63
2018-02-23T03:08:35.458Z,7.60
2018-02-23T03:11:02.972Z,7.23
2018-02-23T03:13:31.227Z,7.60
2018-02-23T03:15:58.740Z,8.70
2018-02-23T03:18:26.229Z,8.30
2018-02-23T03:20:53.737Z,7.60
2018-02-23T03:23:21.226Z,7.97
2018-02-23T03:25:49.504Z,7.47
2018-02-23T03:28:16.994Z,7.67
2018-02-23T03:30:45.282Z,7.60
2018-02-23T03:33:12.778Z,8.67
2018-02-23T03:35:40.292Z,6.80
2018-02-23T03:38:07.788Z,7.10
2018-02-23T03:40:36.074Z,8.00
2018-02-23T03:43:04.330Z,7.80
2018-02-23T03:45:31.839Z,7.80
2018-02-23T03:48:00.102Z,7.40
2018-02-23T03:50:27.621Z,7.00
2018-02-23T03:52:55.113Z,6.97
2018-02-23T03:55:22.627Z,7.03
2018-02-23T03:57:50.880Z,7.33
2018-02-23T04:00:21.844Z,7.20
2018-02-23T04:02:49.341Z,7.77
2018-02-23T04:05:17.621Z,6.50
2018-02-23T04:07:45.900Z,7.00
2018-02-23T04:10:13.392Z,7.80
2018-02-23T04:12:41.669Z,7.10
2018-02-23T04:15:09.170Z,7.20
2018-02-23T04:17:36.693Z,6.60
2018-02-23T04:20:04.192Z,8.00
2018-02-23T04:22:32.467Z,7.10
2018-02-23T04:24:59.961Z,7.53
2018-02-23T04:27:27.474Z,7.30
2018-02-23T04:29:54.969Z,7.07
2018-02-23T04:32:22.493Z,6.13
2018-02-23T04:34:49.989Z,6.50
2018-02-23T04:37:17.501Z,7.13
2018-02-23T04:39:45.001Z,7.23
2018-02-23T04:42:12.513Z,7.60
2018-02-23T04:44:40.000Z,7.03
2018-02-23T04:47:07.517Z,7.53
2018-02-23T04:49:35.008Z,7.40
2018-02-23T04:52:02.529Z,8.03
2018-02-23T04:54:30.030Z,9.20
2018-02-23T04:56:57.545Z,7.73
2018-02-23T04:59:25.902Z,8.70
2018-02-23T05:01:53.416Z,8.80
2018-02-23T05:04:20.906Z,8.50
2018-02-23T05:06:49.190Z,7.37
2018-02-23T05:09:17.453Z,7.20
2018-02-23T05:11:44.968Z,6.60
2018-02-23T05:14:12.456Z,7.70
2018-02-23T05:16:39.965Z,7.60
2018-02-23T05:19:07.455Z,6.93
2018-02-23T05:21:35.745Z,7.37
2018-02-23T05:24:03.287Z,7.07
2018-02-23T05:26:30.756Z,6.53
2018-02-23T05:28:58.248Z,6.80
2018-02-23T05:31:26.526Z,6.20
2018-02-23T05:33:54.028Z,6.93
2018-02-23T05:36:21.537Z,6.50
2018-02-23T05:38:49.034Z,7.30
2018-02-23T05:41:16.550Z,7.20
2018-02-23T05:43:44.050Z,7.10
2018-02-23T05:46:11.566Z,7.80
2018-02-23T05:48:39.820Z,5.93
2018-02-23T05:51:07.341Z,6.90
2018-02-23T05:53:34.843Z,7.10
2018-02-23T05:56:02.369Z,7.20
2018-02-23T05:58:30.629Z,7.57
2018-02-23T06:00:58.148Z,7.50
2018-02-23T06:03:25.650Z,6.80
2018-02-23T06:05:53.170Z,6.93
2018-02-23T06:08:21.428Z,7.40
2018-02-23T06:10:48.941Z,6.20
2018-02-23T06:13:16.467Z,8.73
2018-02-23T06:15:49.673Z,8.50
2018-02-23T06:18:22.789Z,8.43
2018-02-23T06:20:50.289Z,7.20
2018-02-23T06:23:17.804Z,7.30
2018-02-23T06:25:45.301Z,7.40
2018-02-23T06:28:13.583Z,7.13
2018-02-23T06:30:41.077Z,7.33
2018-02-23T06:33:10.561Z,7.73
2018-02-23T06:35:38.060Z,8.60
2018-02-23T06:38:06.336Z,8.17
2018-02-23T06:40:33.838Z,7.50
2018-02-23T06:43:01.352Z,8.10
2018-02-23T06:45:28.848Z,7.43
2018-02-23T06:47:56.364Z,8.73
2018-02-23T06:50:23.869Z,8.47
2018-02-23T06:52:51.381Z,9.00
2018-02-23T06:55:18.877Z,8.80
2018-02-23T06:57:46.394Z,9.07
2018-02-23T07:00:13.888Z,8.70
2018-02-23T07:02:41.414Z,7.60
2018-02-23T07:05:08.916Z,8.87
2018-02-23T07:07:37.201Z,9.07
2018-02-23T07:10:05.456Z,8.00
2018-02-23T07:12:32.964Z,7.80
2018-02-23T07:15:01.224Z,8.50
2018-02-23T07:17:28.746Z,8.30
2018-02-23T07:19:56.253Z,8.67
2018-02-23T07:22:23.768Z,7.90
2018-02-23T07:24:52.037Z,8.40
2018-02-23T07:27:19.578Z,8.10
2018-02-23T07:29:47.069Z,12.07
2018-02-23T07:32:14.588Z,10.10
2018-02-23T07:34:42.097Z,7.70
2018-02-23T07:37:09.622Z,8.40
2018-02-23T07:39:37.185Z,8.90
2018-02-23T07:42:05.472Z,8.10
2018-02-23T07:44:33.729Z,7.90
2018-02-23T07:47:01.217Z,9.33
2018-02-23T07:49:28.732Z,8.77
2018-02-23T07:51:56.228Z,8.03
2018-02-23T07:54:23.731Z,7.90
2018-02-23T07:56:51.989Z,8.73
2018-02-23T07:59:19.506Z,8.60
2018-02-23T08:01:47.761Z,7.63
2018-02-23T08:04:15.275Z,8.03
2018-02-23T08:06:42.846Z,8.37
2018-02-23T08:09:10.382Z,7.87
2018-02-23T08:11:37.886Z,8.20
2018-02-23T08:14:20.480Z,8.47
2018-02-23T08:16:48.755Z,8.70
2018-02-23T08:19:16.261Z,8.93
2018-02-23T08:21:44.519Z,8.83
2018-02-23T08:24:12.045Z,7.93
2018-02-23T08:26:39.545Z,8.67
2018-02-23T08:29:07.032Z,8.20
2018-02-23T08:31:34.540Z,9.50
2018-02-23T08:34:02.041Z,9.37
2018-02-23T08:36:29.548Z,9.80
2018-02-23T08:38:57.037Z,9.97
2018-02-23T08:41:25.324Z,10.90
2018-02-23T08:43:53.580Z,58.73
2018-02-23T08:46:21.115Z,11.40
2018-02-23T08:48:48.614Z,10.27
2018-02-23T08:51:16.120Z,8.73
2018-02-23T08:53:45.386Z,9.27
2018-02-23T08:56:12.904Z,10.23
2018-02-23T08:58:41.163Z,9.73
2018-02-23T09:01:08.676Z,10.13
2018-02-23T09:03:36.164Z,11.50
2018-02-23T09:06:03.681Z,11.07
2018-02-23T09:08:31.181Z,15.97
2018-02-23T09:10:59.471Z,14.00
2018-02-23T09:13:27.732Z,12.40
2018-02-23T09:15:55.224Z,11.20
2018-02-23T09:18:23.501Z,11.80
2018-02-23T09:20:50.990Z,11.97
2018-02-23T09:23:18.517Z,12.17
2018-02-23T09:25:46.012Z,13.20
2018-02-23T09:28:14.289Z,11.77
2018-02-23T09:30:41.794Z,11.87
2018-02-23T09:33:09.447Z,11.93
2018-02-23T09:35:53.507Z,11.87
2018-02-23T09:38:21.790Z,11.60
2018-02-23T09:40:49.280Z,12.40
2018-02-23T09:43:17.565Z,12.17
2018-02-23T09:45:49.032Z,11.57
2018-02-23T09:48:16.585Z,13.10
2018-02-23T09:50:44.839Z,11.07
2018-02-23T09:53:12.357Z,11.90
2018-02-23T09:55:40.612Z,12.63
2018-02-23T09:58:08.121Z,11.77
2018-02-23T10:00:41.850Z,12.40
2018-02-23T10:03:09.362Z,11.60
2018-02-23T10:05:36.860Z,12.00
2018-02-23T10:08:04.372Z,25.13
2018-02-23T10:10:32.632Z,12.13
2018-02-23T10:13:00.903Z,11.50
2018-02-23T10:15:28.407Z,11.27
2018-02-23T10:17:55.913Z,10.83
2018-02-23T10:20:23.409Z,12.73
2018-02-23T10:22:50.929Z,11.97
2018-02-23T10:25:19.187Z,10.60
2018-02-23T10:27:47.525Z,12.33
2018-02-23T10:30:15.790Z,11.00
2018-02-23T10:32:43.358Z,10.80
2018-02-23T10:35:10.829Z,11.67
2018-02-23T10:37:38.341Z,13.27
2018-02-23T10:40:05.828Z,21.10
2018-02-23T10:42:33.348Z,12.33
2018-02-23T10:45:00.837Z,11.07
2018-02-23T10:47:28.358Z,11.87
2018-02-23T10:49:56.611Z,11.07
2018-02-23T10:52:24.123Z,10.40
2018-02-23T10:54:52.382Z,11.53
2018-02-23T10:57:19.905Z,11.30
2018-02-23T10:59:47.396Z,11.10
2018-02-23T11:02:14.915Z,10.90
2018-02-23T11:04:42.434Z,11.40
2018-02-23T11:07:09.929Z,10.43
2018-02-23T11:09:37.454Z,11.70
2018-02-23T11:12:04.953Z,11.50
2018-02-23T11:14:32.484Z,11.20
2018-02-23T11:17:00.745Z,12.00
2018-02-23T11:19:28.260Z,11.23
2018-02-23T11:22:01.182Z,11.43
2018-02-23T11:24:28.709Z,10.23
2018-02-23T11:26:56.209Z,10.50
2018-02-23T11:29:23.729Z,11.10
2018-02-23T11:31:51.229Z,11.20
2018-02-23T11:34:18.747Z,10.87
2018-02-23T11:36:46.245Z,10.57
2018-02-23T11:39:14.538Z,11.43
2018-02-23T11:41:42.798Z,9.67
2018-02-23T11:44:10.308Z,10.50
2018-02-23T11:46:38.574Z,10.40
2018-02-23T11:49:06.096Z,11.10
2018-02-23T11:51:33.592Z,11.03
2018-02-23T11:54:01.105Z,12.20
2018-02-23T11:56:29.358Z,11.60
2018-02-23T11:58:56.895Z,10.97
2018-02-23T12:01:24.384Z,11.30
2018-02-23T12:03:51.896Z,11.93
2018-02-23T12:06:20.158Z,11.70
2018-02-23T12:08:47.681Z,12.17
2018-02-23T12:11:15.186Z,11.63
2018-02-23T12:13:42.704Z,10.47
2018-02-23T12:16:12.880Z,18.20
2018-02-23T12:18:40.388Z,13.97
2018-02-23T12:21:07.904Z,12.57
2018-02-23T12:23:35.425Z,10.50
2018-02-23T12:26:02.923Z,11.00
2018-02-23T12:28:30.433Z,12.37
2018-02-23T12:30:57.925Z,12.20
2018-02-23T12:33:25.442Z,11.50
2018-02-23T12:35:52.942Z,12.00
2018-02-23T12:38:20.437Z,10.53
2018-02-23T12:40:47.949Z,10.67
2018-02-23T12:43:15.440Z,12.03
2018-02-23T12:45:43.741Z,12.40
2018-02-23T12:48:11.242Z,12.40
2018-02-23T12:50:38.761Z,11.60
2018-02-23T12:53:06.254Z,12.00
2018-02-23T12:55:33.769Z,12.17
2018-02-23T12:58:02.033Z,12.77
2018-02-23T13:00:29.549Z,12.73
2018-02-23T13:02:57.040Z,13.37
2018-02-23T13:05:24.553Z,13.40
2018-02-23T13:07:52.048Z,14.10
2018-02-23T13:10:20.332Z,15.03
2018-02-23T13:12:48.589Z,13.90
2018-02-23T13:15:18.909Z,13.50
2018-02-23T13:17:46.406Z,14.60
2018-02-23T13:20:13.925Z,13.70
2018-02-23T13:22:41.412Z,13.83
2018-02-23T13:25:08.931Z,13.00
2018-02-23T13:27:36.432Z,13.83
2018-02-23T13:30:06.000Z,14.50
2018-02-23T13:32:33.497Z,14.33
2018-02-23T13:35:01.782Z,14.23
2018-02-23T13:37:30.049Z,14.57
2018-02-23T13:39:57.564Z,13.60
2018-02-23T13:42:26.921Z,14.53
2018-02-23T13:44:54.450Z,14.30
2018-02-23T13:47:21.944Z,14.93
2018-02-23T13:49:49.465Z,16.37
2018-02-23T13:52:17.733Z,14.10
2018-02-23T13:54:45.273Z,14.90
2018-02-23T13:57:12.805Z,13.10
2018-02-23T13:59:40.336Z,14.33
2018-02-23T14:02:07.842Z,14.27
2018-02-23T14:04:36.127Z,14.13
2018-02-23T14:07:09.259Z,18.60
2018-02-23T14:09:36.781Z,16.90
2018-02-23T14:12:05.069Z,15.33
2018-02-23T14:14:32.594Z,14.90
2018-02-23T14:17:00.092Z,15.60
2018-02-23T14:19:27.627Z,16.17
2018-02-23T14:21:55.124Z,15.87
2018-02-23T14:24:22.653Z,15.60
2018-02-23T14:26:50.978Z,14.10
2018-02-23T14:29:18.514Z,14.70
2018-02-23T14:31:46.020Z,15.10
2018-02-23T14:34:13.535Z,17.03
2018-02-23T14:36:41.037Z,16.57
2018-02-23T14:39:08.553Z,15.77
2018-02-23T14:41:36.057Z,16.13
2018-02-23T14:44:04.346Z,15.30
2018-02-23T14:46:32.608Z,15.43
2018-02-23T14:49:22.961Z,16.57
2018-02-23T14:51:50.458Z,16.70
2018-02-23T14:54:17.984Z,16.00
2018-02-23T14:56:46.255Z,17.07
2018-02-23T14:59:13.761Z,16.90
2018-02-23T15:01:41.280Z,17.00
2018-02-23T15:04:08.780Z,16.60
2018-02-23T15:06:38.068Z,15.93
2018-02-23T15:09:05.557Z,15.17
2018-02-23T15:11:33.078Z,17.37
2018-02-23T15:14:00.578Z,15.80
2018-02-23T15:16:28.110Z,16.33
2018-02-23T15:18:55.613Z,16.80
2018-02-23T15:21:23.129Z,15.23
2018-02-23T15:23:51.391Z,20.87
2018-02-23T15:26:18.922Z,16.20
2018-02-23T15:28:46.420Z,15.90
2018-02-23T15:31:25.765Z,16.40
2018-02-23T15:33:53.266Z,15.70
2018-02-23T15:36:28.482Z,14.77
2018-02-23T15:39:06.148Z,14.93
2018-02-23T15:41:33.665Z,15.33
2018-02-23T15:44:01.161Z,13.90
2018-02-23T15:46:28.688Z,15.10
2018-02-23T15:49:01.776Z,15.07
2018-02-23T15:51:34.922Z,15.53
2018-02-23T15:54:02.433Z,15.80
2018-02-23T15:56:29.954Z,16.10
2018-02-23T15:58:57.450Z,16.50
2018-02-23T16:01:24.971Z,15.50
2018-02-23T16:03:52.496Z,15.43
2018-02-23T16:06:20.772Z,15.40
2018-02-23T16:08:48.264Z,16.50
2018-02-23T16:11:16.541Z,17.60
2018-02-23T16:13:44.812Z,14.30
2018-02-23T16:16:13.115Z,15.13
2018-02-23T16:18:41.393Z,16.30
2018-02-23T16:21:08.919Z,17.70
2018-02-23T16:23:36.433Z,14.80
2018-02-23T16:26:03.947Z,15.40
2018-02-23T16:28:31.457Z,15.27
2018-02-23T16:30:58.989Z,16.50
2018-02-23T16:33:26.484Z,14.47
2018-02-23T16:35:54.008Z,13.90
2018-02-23T16:38:21.519Z,14.20
2018-02-23T16:40:49.032Z,14.70
2018-02-23T16:46:10.609Z,14.10
2018-02-23T16:48:38.116Z,13.77
2018-02-23T16:51:05.638Z,13.13
2018-02-23T16:53:33.130Z,14.23
2018-02-23T16:56:01.413Z,13.00
2018-02-23T16:58:29.677Z,14.67
2018-02-23T17:00:57.189Z,13.70
2018-02-23T17:03:24.688Z,15.20
2018-02-23T17:05:52.208Z,16.50
2018-02-23T17:08:19.701Z,16.10
2018-02-23T17:10:47.232Z,15.33
2018-02-23T17:13:14.738Z,19.53
2018-02-23T17:15:42.270Z,24.87
2018-02-23T17:18:09.774Z,16.20
2018-02-23T17:20:38.066Z,16.60
2018-02-23T17:23:06.320Z,17.67
2018-02-23T17:25:33.837Z,17.10
2018-02-23T17:28:01.332Z,17.67
2018-02-23T17:30:28.845Z,18.57
2018-02-23T17:32:56.339Z,16.97
2018-02-23T17:35:24.619Z,16.87
2018-02-23T17:37:52.881Z,14.60
2018-02-23T17:40:20.405Z,17.30
2018-02-23T17:42:47.901Z,15.93
2018-02-23T17:45:15.421Z,14.40
2018-02-23T17:47:42.916Z,17.37
2018-02-23T17:50:10.424Z,16.73
2018-02-23T17:52:37.921Z,17.17
2018-02-23T17:55:06.217Z,15.70
2018-02-23T17:57:34.487Z,17.50
2018-02-23T18:00:01.976Z,17.77
2018-02-23T18:02:30.261Z,18.97
2018-02-23T18:04:58.525Z,16.73
2018-02-23T18:07:26.046Z,16.83
2018-02-23T18:09:53.552Z,17.70
2018-02-23T18:12:21.076Z,17.17
2018-02-23T18:14:48.574Z,15.83
2018-02-23T18:17:16.094Z,17.80
2018-02-23T18:19:44.363Z,17.40
2018-02-23T18:22:11.885Z,28.20
2018-02-23T18:24:39.390Z,17.53
2018-02-23T18:27:06.917Z,16.37
2018-02-23T18:29:34.452Z,17.30
2018-02-23T18:32:02.000Z,18.50
2018-02-23T18:34:29.528Z,18.27
2018-02-23T18:36:57.064Z,18.23
2018-02-23T18:39:24.578Z,19.53
2018-02-23T18:41:52.105Z,18.93
2018-02-23T18:44:19.599Z,18.57
2018-02-23T18:46:48.870Z,19.13
2018-02-23T18:49:16.412Z,21.57
2018-02-23T18:51:44.669Z,19.20
2018-02-23T18:54:12.944Z,20.10
2018-02-23T18:56:40.441Z,19.57
2018-02-23T18:59:07.980Z,79.77
2018-02-23T19:01:35.487Z,23.50
2018-02-23T19:04:03.017Z,20.33
2018-02-23T19:06:30.524Z,20.60
2018-02-23T19:08:58.058Z,21.07
2018-02-23T19:11:25.564Z,22.90
2018-02-23T19:13:53.082Z,20.50
2018-02-23T19:16:20.592Z,20.30
2018-02-23T19:18:48.879Z,21.07
2018-02-23T19:21:16.383Z,22.27
2018-02-23T19:23:43.906Z,21.67
2018-02-23T19:26:12.215Z,18.97
2018-02-23T19:28:40.510Z,21.07
2018-02-23T19:31:08.089Z,21.63
2018-02-23T19:33:35.589Z,20.47
2018-02-23T19:36:03.112Z,21.30
2018-02-23T19:38:31.386Z,20.10
2018-02-23T19:40:59.769Z,21.80
2018-02-23T19:43:27.265Z,22.40
2018-02-23T19:45:55.549Z,20.83
2018-02-23T19:48:23.833Z,20.73
2018-02-23T19:50:52.130Z,23.40
2018-02-23T19:53:20.389Z,27.27
2018-02-23T19:55:47.914Z,21.50
2018-02-23T19:58:15.446Z,20.27
2018-02-23T20:00:42.974Z,21.03
2018-02-23T20:03:10.481Z,19.00
2018-02-23T20:05:38.017Z,20.70
2018-02-23T20:08:05.513Z,21.43
2018-02-23T20:10:33.040Z,20.23
2018-02-23T20:13:00.545Z,20.10
2018-02-23T20:15:28.046Z,21.77
2018-02-23T20:17:55.614Z,21.77
2018-02-23T20:20:23.103Z,19.63
2018-02-23T20:22:50.638Z,21.60
2018-02-23T20:25:18.150Z,20.87
2018-02-23T20:27:45.682Z,19.60
2018-02-23T20:30:13.185Z,22.13
2018-02-23T20:32:41.489Z,33.83
2018-02-23T20:35:09.014Z,22.03
2018-02-23T20:37:36.681Z,20.20
2018-02-23T20:40:04.279Z,20.57
2018-02-23T20:42:31.875Z,19.07
2018-02-23T20:44:59.400Z,21.03
2018-02-23T20:47:26.935Z,19.70
2018-02-23T20:49:54.513Z,21.33
2018-02-23T20:52:22.201Z,20.27
2018-02-23T20:54:49.742Z,20.17
2018-02-23T20:57:17.347Z,20.80
2018-02-23T20:59:44.902Z,20.40
2018-02-23T21:02:12.492Z,21.37
2018-02-23T21:04:40.054Z,20.00
2018-02-23T21:07:07.617Z,20.53
2018-02-23T21:09:35.190Z,22.23
2018-02-23T21:12:02.743Z,21.00
2018-02-23T21:14:30.288Z,22.27
2018-02-23T21:17:00.549Z,23.03
2018-02-23T21:19:28.096Z,21.27
2018-02-23T21:21:56.453Z,22.07
2018-02-23T21:24:24.978Z,22.17
2018-02-23T21:26:53.319Z,22.67
2018-02-23T21:29:20.863Z,20.70
2018-02-23T21:31:48.465Z,19.47
2018-02-23T21:34:16.050Z,22.83
2018-02-23T21:36:43.638Z,22.63
2018-02-23T21:39:11.171Z,27.63
2018-02-23T21:41:50.458Z,24.40
2018-02-23T21:44:20.034Z,21.23
2018-02-23T21:46:47.627Z,22.57
2018-02-23T21:49:15.153Z,21.20
2018-02-23T21:51:42.708Z,23.20
2018-02-23T21:54:11.075Z,22.33
2018-02-23T21:56:38.632Z,22.33
2018-02-23T21:59:06.172Z,20.90
2018-02-23T22:01:33.743Z,20.77
2018-02-23T22:04:01.268Z,21.07
2018-02-23T22:06:28.853Z,23.47
2018-02-23T22:08:57.152Z,20.53
2018-02-23T22:11:24.711Z,21.40
2018-02-23T22:13:52.999Z,20.40
2018-02-23T22:16:21.327Z,19.47
2018-02-23T22:18:48.894Z,21.07
2018-02-23T22:21:16.450Z,19.03
2018-02-23T22:23:44.748Z,21.00
2018-02-23T22:26:12.321Z,21.33
2018-02-23T22:28:39.854Z,21.20
2018-02-23T22:31:07.402Z,21.07
2018-02-23T22:33:34.949Z,21.10
2018-02-23T22:36:02.497Z,21.20
2018-02-23T22:38:30.829Z,19.17
2018-02-23T22:40:58.366Z,19.20
2018-02-23T22:43:25.934Z,20.20
2018-02-23T22:45:53.483Z,20.53
2018-02-23T22:48:21.018Z,20.47
2018-02-23T22:50:48.525Z,21.33
2018-02-23T22:53:16.849Z,17.60
2018-02-23T22:55:44.396Z,20.30
2018-02-23T22:58:11.932Z,20.57
2018-02-23T23:00:43.731Z,20.60
2018-02-23T23:03:12.085Z,19.17
2018-02-23T23:05:39.623Z,19.17
2018-02-23T23:08:07.165Z,21.20
2018-02-23T23:10:35.469Z,20.07
2018-02-23T23:13:03.044Z,20.13
2018-02-23T23:15:30.588Z,19.53
2018-02-23T23:17:58.915Z,19.07
2018-02-23T23:20:26.454Z,17.73
2018-02-23T23:22:54.760Z,19.67
2018-02-23T23:28:19.297Z,17.00
2018-02-23T23:30:46.825Z,18.13
2018-02-23T23:33:14.374Z,19.20
2018-02-23T23:35:41.907Z,19.57
2018-02-23T23:38:10.214Z,16.83
2018-02-23T23:40:37.745Z,18.10
2018-02-23T23:43:05.330Z,17.30
2018-02-23T23:45:33.627Z,19.00
2018-02-23T23:48:01.175Z,17.10
2018-02-23T23:50:28.714Z,19.47
2018-02-23T23:52:56.279Z,19.57
2018-02-23T23:55:23.814Z,18.70
2018-02-23T23:57:51.348Z,16.77
